Time;durP1;ratioP1;P1;durP2;ratioP2;P2;SDS_P1;SDS_P2;PMS_P1;PMS_P2;Temp;Humidity;BMP_temperature;BMP_pressure;BME280_temperature;BME280_humidity;BME280_pressure;Samples;Min_cycle;Max_cycle;Signal;HPM_P1;HPM_P2
2022/03/26 00:02:36;;;;;;;9.98;5.15;;;12.50;97.50;;;;;;1884709;76;21138;-75
2022/03/26 00:05:28;;;;;;;6.80;5.35;;;12.40;97.70;;;;;;1884888;76;21486;-75
2022/03/26 00:10:59;;;;;;;8.38;5.03;;;12.30;97.40;;;;;;1941415;72;22796;-75
2022/03/26 00:14:11;;;;;;;8.63;4.90;;;12.30;97.60;;;;;;1895045;75;21113;-76
2022/03/26 00:17:10;;;;;;;7.10;5.33;;;12.30;97.70;;;;;;1887326;75;21640;-75
2022/03/26 00:20:01;;;;;;;6.87;5.37;;;12.20;97.80;;;;;;1905842;74;21148;-75
2022/03/26 00:25:32;;;;;;;7.53;5.45;;;12.10;99.30;;;;;;1937545;72;22243;-76
2022/03/26 00:28:42;;;;;;;6.62;4.97;;;12.10;99.90;;;;;;1910402;74;21059;-75
2022/03/26 00:31:33;;;;;;;6.33;4.92;;;12.00;99.90;;;;;;1887423;75;21184;-75
2022/03/26 00:34:26;;;;;;;8.55;5.50;;;11.90;99.90;;;;;;1906266;75;21119;-75
2022/03/26 00:37:18;;;;;;;7.92;5.00;;;11.90;99.90;;;;;;1904857;75;21062;-75
2022/03/26 00:40:13;;;;;;;7.33;5.20;;;11.90;99.90;;;;;;1909754;75;21501;-75
2022/03/26 00:45:46;;;;;;;7.60;5.10;;;11.80;99.90;;;;;;1962281;72;22147;-77
2022/03/26 00:48:56;;;;;;;7.08;5.47;;;11.80;99.90;;;;;;1926180;73;21135;-76
2022/03/26 00:51:48;;;;;;;10.30;6.25;;;11.80;99.90;;;;;;1918190;73;21542;-75
2022/03/26 00:54:39;;;;;;;9.18;5.00;;;11.70;99.90;;;;;;1924386;73;21171;-76
2022/03/26 01:00:14;;;;;;;8.08;5.00;;;11.60;99.90;;;;;;1941146;72;22182;-74
2022/03/26 01:03:24;;;;;;;9.05;5.62;;;11.60;99.90;;;;;;1918633;73;21139;-75
2022/03/26 01:06:18;;;;;;;8.83;5.03;;;11.60;99.90;;;;;;1918227;73;21102;-75
2022/03/26 01:11:48;;;;;;;10.55;5.65;;;11.40;99.90;;;;;;1940172;72;22215;-75
2022/03/26 01:14:58;;;;;;;6.30;4.97;;;11.30;99.90;;;;;;1893318;75;21069;-75
2022/03/26 01:17:50;;;;;;;7.50;5.40;;;11.30;99.90;;;;;;1897097;75;21075;-75
2022/03/26 01:20:41;;;;;;;8.80;5.62;;;11.20;99.90;;;;;;1899144;75;21157;-75
2022/03/26 01:23:35;;;;;;;6.80;4.87;;;11.20;99.90;;;;;;1889495;75;21099;-75
2022/03/26 01:26:27;;;;;;;7.75;4.95;;;11.10;99.90;;;;;;1869046;76;21110;-75
2022/03/26 01:29:19;;;;;;;8.30;5.17;;;11.10;99.90;;;;;;1853467;77;21122;-75
2022/03/26 01:32:13;;;;;;;7.15;5.08;;;11.00;99.90;;;;;;1902101;75;21094;-75
2022/03/26 01:35:05;;;;;;;8.43;5.03;;;10.90;99.90;;;;;;1893013;75;21048;-75
2022/03/26 01:40:37;;;;;;;8.75;5.72;;;10.80;99.90;;;;;;1944344;72;22161;-76
2022/03/26 01:43:48;;;;;;;8.00;5.80;;;10.60;99.90;;;;;;1904572;73;21231;-75
2022/03/26 01:46:51;;;;;;;11.22;5.87;;;10.60;99.90;;;;;;1874767;76;21071;-77
2022/03/26 01:52:22;;;;;;;8.43;5.45;;;10.50;99.90;;;;;;1945072;72;22179;-76
2022/03/26 01:58:11;;;;;;;8.55;5.12;;;10.60;99.90;;;;;;1934222;72;22269;-75
2022/03/26 02:01:21;;;;;;;9.75;5.30;;;10.50;99.90;;;;;;1917964;74;21154;-75
2022/03/26 02:06:52;;;;;;;6.83;5.12;;;10.50;99.90;;;;;;1930121;72;22239;-77
2022/03/26 02:10:02;;;;;;;8.20;5.75;;;10.50;99.90;;;;;;1895847;75;21122;-76
2022/03/26 02:15:33;;;;;;;8.55;5.47;;;10.50;99.90;;;;;;1954283;72;22208;-75
2022/03/26 02:18:43;;;;;;;7.53;5.22;;;10.60;99.90;;;;;;1901071;74;21058;-76
2022/03/26 02:21:35;;;;;;;8.13;5.35;;;10.60;99.90;;;;;;1888175;75;21113;-76
2022/03/26 02:24:26;;;;;;;9.55;5.15;;;10.60;99.90;;;;;;1909793;75;21213;-75
2022/03/26 02:27:17;;;;;;;9.05;5.72;;;10.60;99.90;;;;;;1891482;75;21070;-75
2022/03/26 02:30:11;;;;;;;7.97;5.37;;;10.60;99.90;;;;;;1899430;75;21132;-75
2022/03/26 02:35:41;;;;;;;8.03;5.37;;;10.60;99.90;;;;;;1932841;72;22194;-74
2022/03/26 02:38:51;;;;;;;5.78;5.00;;;10.60;99.90;;;;;;1895026;75;21107;-75
2022/03/26 02:41:42;;;;;;;6.85;5.33;;;10.60;99.90;;;;;;1891840;75;21124;-74
2022/03/26 02:44:33;;;;;;;9.90;5.17;;;10.60;99.90;;;;;;1887566;75;21115;-74
2022/03/26 02:47:24;;;;;;;7.67;5.30;;;10.40;99.90;;;;;;1875583;75;21075;-75
2022/03/26 02:50:16;;;;;;;10.13;5.08;;;10.40;99.90;;;;;;1879891;75;21495;-75
2022/03/26 02:53:07;;;;;;;8.75;5.03;;;10.40;99.90;;;;;;1879993;75;21088;-76
2022/03/26 02:55:59;;;;;;;7.35;5.03;;;10.30;99.90;;;;;;1891188;75;21139;-75
2022/03/26 03:01:36;;;;;;;6.85;5.08;;;10.30;99.90;;;;;;1952701;72;22127;-74
2022/03/26 03:04:46;;;;;;;6.72;4.97;;;10.30;99.90;;;;;;1916016;73;21055;-76
2022/03/26 03:10:18;;;;;;;6.97;4.80;;;10.30;99.90;;;;;;1953819;72;22238;-76
2022/03/26 03:16:06;;;;;;;6.20;5.15;;;10.30;99.90;;;;;;1934139;72;22209;-76
2022/03/26 03:19:16;;;;;;;6.97;5.45;;;10.20;99.90;;;;;;1905023;75;21050;-76
2022/03/26 03:22:07;;;;;;;8.40;5.15;;;10.20;99.90;;;;;;1881880;75;21101;-75
2022/03/26 03:30:20;;;;;;;7.55;5.90;;;10.00;99.90;;;;;;1943734;72;22197;-74
2022/03/26 03:36:09;;;;;;;6.67;5.35;;;10.00;99.90;;;;;;1955968;72;22142;-75
2022/03/26 03:39:19;;;;;;;6.70;5.65;;;10.00;99.90;;;;;;1896712;75;21104;-76
2022/03/26 03:42:10;;;;;;;8.45;6.03;;;10.10;99.90;;;;;;1891403;75;21103;-75
2022/03/26 03:45:02;;;;;;;7.22;6.08;;;10.10;99.90;;;;;;1898778;75;21236;-75
2022/03/26 03:50:36;;;;;;;8.38;5.40;;;10.00;99.90;;;;;;1945804;72;22121;-77
2022/03/26 03:53:46;;;;;;;10.08;5.55;;;10.00;99.90;;;;;;1916980;75;21161;-76
2022/03/26 03:56:37;;;;;;;8.48;5.25;;;10.00;99.90;;;;;;1895592;75;21227;-76
2022/03/26 03:59:28;;;;;;;7.37;5.67;;;9.90;99.90;;;;;;1896152;75;21096;-76
2022/03/26 04:02:20;;;;;;;11.12;7.25;;;9.90;99.90;;;;;;1884946;76;21121;-76
2022/03/26 04:05:13;;;;;;;9.55;6.45;;;9.80;99.90;;;;;;1913435;75;21091;-76
2022/03/26 04:10:46;;;;;;;6.95;4.72;;;9.70;99.90;;;;;;1935345;72;22110;-76
2022/03/26 04:13:56;;;;;;;6.87;4.78;;;9.70;99.90;;;;;;1908101;75;21104;-76
2022/03/26 04:16:47;;;;;;;8.53;5.05;;;9.70;99.90;;;;;;1913258;75;21087;-75
2022/03/26 04:19:39;;;;;;;9.78;4.90;;;9.70;99.90;;;;;;1897263;75;21090;-77
2022/03/26 04:22:30;;;;;;;7.97;5.05;;;9.70;99.90;;;;;;1906688;75;21059;-75
2022/03/26 04:25:22;;;;;;;7.12;4.72;;;9.70;99.90;;;;;;1905900;75;21197;-76
2022/03/26 04:30:52;;;;;;;8.98;4.95;;;9.60;99.90;;;;;;1946932;72;23367;-74
2022/03/26 04:36:41;;;;;;;6.80;4.70;;;9.50;99.90;;;;;;1958555;72;22249;-76
2022/03/26 04:42:29;;;;;;;8.28;5.17;;;9.60;99.90;;;;;;1941696;72;22271;-74
2022/03/26 04:45:39;;;;;;;10.23;5.62;;;9.60;99.90;;;;;;1923996;74;21623;-77
2022/03/26 04:48:31;;;;;;;8.05;5.85;;;9.60;99.90;;;;;;1920777;74;21105;-76
2022/03/26 04:51:22;;;;;;;7.65;5.78;;;9.60;99.90;;;;;;1886254;75;21175;-76
2022/03/26 04:54:14;;;;;;;9.63;5.90;;;9.50;99.90;;;;;;1904766;74;21490;-76
2022/03/26 04:57:07;;;;;;;8.08;5.62;;;9.50;99.90;;;;;;1898524;74;21583;-76
2022/03/26 05:02:39;;;;;;;6.90;5.40;;;9.50;99.90;;;;;;1954250;72;22777;-74
2022/03/26 05:05:49;;;;;;;7.50;5.55;;;9.60;99.90;;;;;;1904414;75;21623;-76
2022/03/26 05:08:40;;;;;;;8.15;5.22;;;9.50;99.90;;;;;;1898796;75;21502;-76
2022/03/26 05:11:31;;;;;;;10.25;5.75;;;9.40;99.90;;;;;;1917527;75;21047;-76
2022/03/26 05:14:22;;;;;;;9.63;5.50;;;9.30;99.90;;;;;;1916233;75;21051;-76
2022/03/26 05:17:13;;;;;;;8.28;5.17;;;9.30;99.90;;;;;;1917701;75;21084;-76
2022/03/26 05:20:09;;;;;;;10.85;5.10;;;9.30;99.90;;;;;;1911602;75;21117;-76
2022/03/26 05:25:40;;;;;;;5.97;4.45;;;9.10;99.90;;;;;;1944913;72;22627;-74
2022/03/26 05:28:50;;;;;;;6.97;4.78;;;9.00;99.90;;;;;;1895763;75;21091;-77
2022/03/26 05:31:41;;;;;;;7.17;5.45;;;9.10;99.90;;;;;;1899803;75;21149;-76
2022/03/26 05:34:32;;;;;;;9.73;5.10;;;9.00;99.90;;;;;;1897515;75;21138;-76
2022/03/26 05:37:23;;;;;;;10.40;5.58;;;9.10;99.90;;;;;;1895808;75;21226;-76
2022/03/26 05:40:17;;;;;;;8.08;5.83;;;9.10;99.90;;;;;;1908797;75;21107;-77
2022/03/26 05:43:09;;;;;;;9.00;6.28;;;9.10;99.90;;;;;;1898319;75;21063;-77
2022/03/26 05:46:00;;;;;;;8.53;6.45;;;9.10;99.90;;;;;;1899000;75;21168;-75
2022/03/26 05:48:52;;;;;;;9.15;6.55;;;9.20;99.90;;;;;;1902190;75;21055;-75
2022/03/26 05:51:43;;;;;;;9.00;7.10;;;9.10;99.90;;;;;;1894117;75;21161;-77
2022/03/26 05:57:13;;;;;;;8.13;6.45;;;9.10;99.90;;;;;;1958320;72;22136;-74
2022/03/26 06:00:23;;;;;;;10.85;6.62;;;9.00;99.90;;;;;;1897104;75;21105;-76
2022/03/26 06:03:15;;;;;;;9.43;7.15;;;9.10;99.90;;;;;;1910862;75;21164;-75
2022/03/26 06:06:07;;;;;;;8.55;6.92;;;9.10;99.90;;;;;;1908271;75;21079;-75
2022/03/26 06:08:58;;;;;;;8.83;6.90;;;9.10;99.90;;;;;;1920964;74;21162;-77
2022/03/26 06:11:50;;;;;;;8.08;6.45;;;9.10;99.90;;;;;;1898944;75;21050;-75
2022/03/26 06:14:41;;;;;;;9.38;7.15;;;9.20;99.90;;;;;;1911797;75;21171;-76
2022/03/26 06:17:33;;;;;;;9.30;7.20;;;9.20;99.90;;;;;;1889883;75;21083;-75
2022/03/26 06:20:24;;;;;;;8.63;6.75;;;9.30;99.90;;;;;;1904128;75;21052;-75
2022/03/26 06:25:54;;;;;;;8.53;6.33;;;9.40;99.90;;;;;;1941655;72;22614;-74
2022/03/26 06:29:04;;;;;;;8.58;5.85;;;9.40;99.90;;;;;;1902502;75;21564;-76
2022/03/26 06:31:55;;;;;;;6.92;4.90;;;9.40;99.90;;;;;;1896585;75;22013;-76
2022/03/26 06:34:47;;;;;;;6.50;4.95;;;9.30;99.90;;;;;;1898060;75;21196;-77
2022/03/26 06:40:19;;;;;;;6.15;4.67;;;9.50;99.90;;;;;;1950811;72;22182;-77
2022/03/26 06:43:28;;;;;;;7.87;5.60;;;9.50;99.90;;;;;;1899375;75;21096;-76
2022/03/26 06:46:19;;;;;;;9.75;6.30;;;9.50;99.90;;;;;;1903655;75;21204;-75
2022/03/26 06:49:11;;;;;;;8.93;6.65;;;9.50;99.90;;;;;;1897865;75;21129;-76
2022/03/26 06:52:02;;;;;;;9.43;7.33;;;9.50;99.90;;;;;;1883018;75;21067;-77
2022/03/26 06:57:33;;;;;;;9.83;7.35;;;9.60;99.90;;;;;;1952493;72;22330;-75
2022/03/26 07:00:42;;;;;;;9.95;7.37;;;9.60;99.90;;;;;;1917752;75;21063;-75
2022/03/26 07:03:33;;;;;;;12.63;7.30;;;9.60;99.90;;;;;;1895242;75;21104;-75
2022/03/26 07:06:25;;;;;;;12.03;7.50;;;9.60;99.90;;;;;;1890068;75;21131;-76
2022/03/26 07:09:16;;;;;;;14.40;7.50;;;9.70;99.90;;;;;;1888027;75;21597;-75
2022/03/26 07:12:10;;;;;;;10.85;7.83;;;9.80;99.90;;;;;;1900707;75;21553;-75
2022/03/26 07:17:42;;;;;;;12.18;7.87;;;9.80;99.90;;;;;;1952226;72;22669;-74
2022/03/26 07:20:57;;;;;;;12.95;8.10;;;9.90;99.90;;;;;;1911163;75;21043;-76
2022/03/26 07:23:45;;;;;;;11.90;8.10;;;10.00;99.90;;;;;;1905095;75;21080;-75
2022/03/26 07:26:36;;;;;;;13.15;7.75;;;10.00;99.90;;;;;;1900100;75;21055;-76
2022/03/26 07:29:27;;;;;;;12.35;8.45;;;10.00;99.90;;;;;;1909754;75;21117;-75
2022/03/26 07:32:19;;;;;;;10.43;8.05;;;10.10;99.90;;;;;;1912551;75;21120;-75
2022/03/26 07:35:11;;;;;;;11.30;8.43;;;10.10;99.90;;;;;;1911838;75;21113;-75
2022/03/26 07:38:03;;;;;;;11.45;7.67;;;10.20;99.90;;;;;;1901299;75;21165;-75
2022/03/26 07:40:54;;;;;;;9.78;7.47;;;10.20;99.90;;;;;;1900086;75;21071;-77
2022/03/26 07:43:45;;;;;;;10.08;8.10;;;10.30;99.90;;;;;;1895664;75;21106;-76
2022/03/26 07:46:37;;;;;;;11.75;8.38;;;10.40;99.90;;;;;;1895584;75;21055;-75
2022/03/26 07:49:28;;;;;;;10.28;7.85;;;10.40;99.90;;;;;;1912001;75;21145;-75
2022/03/26 07:52:19;;;;;;;13.28;8.48;;;10.50;99.90;;;;;;1897431;75;21044;-75
2022/03/26 07:55:11;;;;;;;11.15;8.10;;;10.50;99.90;;;;;;1902046;75;21138;-75
2022/03/26 07:58:02;;;;;;;11.38;8.38;;;10.60;99.90;;;;;;1900532;75;21161;-76
2022/03/26 08:00:54;;;;;;;11.48;8.33;;;10.60;99.90;;;;;;1899843;75;21634;-76
2022/03/26 08:03:45;;;;;;;12.23;8.50;;;10.60;99.90;;;;;;1912539;74;21103;-76
2022/03/26 08:06:37;;;;;;;14.07;9.88;;;10.70;99.90;;;;;;1922416;74;21169;-75
2022/03/26 08:09:28;;;;;;;10.63;8.53;;;10.80;99.90;;;;;;1893115;75;21068;-77
2022/03/26 08:12:19;;;;;;;13.13;8.85;;;10.80;99.90;;;;;;1892625;75;21059;-76
2022/03/26 08:15:12;;;;;;;14.38;9.08;;;10.90;99.90;;;;;;1899900;75;21043;-75
2022/03/26 08:20:41;;;;;;;14.65;8.45;;;11.10;99.90;;;;;;1956286;72;22229;-77
2022/03/26 08:23:53;;;;;;;13.48;8.40;;;11.10;99.90;;;;;;1907245;75;21043;-76
2022/03/26 08:26:44;;;;;;;10.72;7.53;;;11.30;99.90;;;;;;1899499;75;21047;-76
2022/03/26 08:29:36;;;;;;;10.70;8.53;;;11.30;99.90;;;;;;1898716;73;21195;-74
2022/03/26 08:32:27;;;;;;;12.82;8.40;;;11.40;99.90;;;;;;1906602;75;21054;-76
2022/03/26 08:35:19;;;;;;;12.47;8.20;;;11.50;99.90;;;;;;1896979;75;21127;-76
2022/03/26 08:38:11;;;;;;;11.35;7.83;;;11.60;99.90;;;;;;1908744;75;21092;-76
2022/03/26 08:41:03;;;;;;;14.73;9.65;;;11.70;99.90;;;;;;1903057;75;21121;-75
2022/03/26 08:46:35;;;;;;;11.10;8.58;;;11.90;99.90;;;;;;1951153;72;22123;-77
2022/03/26 08:52:25;;;;;;;11.63;8.33;;;12.10;99.90;;;;;;1937353;72;22724;-78
2022/03/26 08:55:35;;;;;;;11.12;8.45;;;12.20;99.90;;;;;;1899315;75;21557;-76
2022/03/26 08:58:28;;;;;;;10.85;8.23;;;12.30;99.90;;;;;;1880793;75;21199;-77
2022/03/26 09:01:20;;;;;;;12.23;8.58;;;12.40;99.90;;;;;;1881261;75;21113;-76
2022/03/26 09:17:36;;;;;;;11.63;7.67;;;12.60;99.90;;;;;;1930553;72;22251;-87
2022/03/26 09:20:48;;;;;;;11.73;7.37;;;13.20;99.90;;;;;;1905934;74;21548;-86
2022/03/26 09:23:40;;;;;;;11.70;7.15;;;13.30;99.90;;;;;;1904226;74;21560;-86
2022/03/26 09:26:35;;;;;;;9.40;6.83;;;13.40;99.90;;;;;;1843826;77;21058;-85
2022/03/26 09:32:08;;;;;;;10.82;7.47;;;13.60;99.90;;;;;;1952695;72;22592;-87
2022/03/26 09:35:19;;;;;;;10.38;7.17;;;13.70;99.90;;;;;;1916313;75;21179;-86
2022/03/26 09:40:49;;;;;;;13.08;7.08;;;13.80;99.90;;;;;;1937794;72;22099;-84
2022/03/26 09:46:38;;;;;;;10.25;6.40;;;14.10;99.90;;;;;;1957627;72;22258;-84
2022/03/26 09:52:31;;;;;;;11.25;6.97;;;14.40;99.90;;;;;;1957625;72;22092;-84
2022/03/26 09:55:46;;;;;;;9.83;7.35;;;14.50;99.90;;;;;;1898731;75;21063;-84
2022/03/26 10:01:29;;;;;;;8.20;5.60;;;14.70;99.90;;;;;;1952667;72;22243;-85
2022/03/26 10:04:41;;;;;;;8.15;5.80;;;14.80;98.10;;;;;;1937723;73;21150;-84
2022/03/26 10:07:33;;;;;;;8.00;5.60;;;14.90;96.80;;;;;;1925292;73;21094;-84
2022/03/26 10:10:26;;;;;;;8.20;6.00;;;15.00;95.20;;;;;;1918407;73;21696;-84
2022/03/26 10:16:05;;;;;;;9.00;5.80;;;15.20;95.20;;;;;;1970970;72;22212;-84
2022/03/26 10:19:23;;;;;;;8.05;5.72;;;15.30;94.80;;;;;;1938110;73;21514;-85
2022/03/26 10:22:33;;;;;;;;;;;15.40;94.90;;;;;;1920418;75;21106;-85
2022/03/26 10:25:26;;;;;;;9.25;5.45;;;15.50;90.30;;;;;;1938523;73;20549;-84
2022/03/26 10:37:21;;;;;;;6.53;4.90;;;16.00;92.00;;;;;;1951302;72;22408;-85
2022/03/26 10:40:33;;;;;;;8.48;5.15;;;16.10;91.00;;;;;;1906490;75;21167;-84
2022/03/26 10:43:27;;;;;;;6.40;4.35;;;16.20;86.90;;;;;;1907357;75;21046;-85
2022/03/26 10:49:53;;;;;;;7.28;5.30;;;16.30;81.60;;;;;;1915687;73;21070;-86
2022/03/26 10:55:24;;;;;;;6.97;5.10;;;16.70;77.50;;;;;;1942100;72;22519;-85
2022/03/26 11:01:18;;;;;;;7.75;5.10;;;16.90;73.80;;;;;;1942947;72;22170;-87
2022/03/26 11:04:29;;;;;;;7.80;4.92;;;16.90;74.90;;;;;;1912824;74;21486;-85
2022/03/26 11:07:21;;;;;;;7.95;5.42;;;17.00;76.00;;;;;;1889508;75;21139;-86
2022/03/26 11:10:14;;;;;;;8.10;4.87;;;17.10;75.80;;;;;;1908858;75;21076;-86
2022/03/26 11:15:48;;;;;;;7.42;5.17;;;17.30;74.80;;;;;;1954691;72;22271;-84
2022/03/26 11:19:03;;;;;;;8.25;5.90;;;17.40;75.20;;;;;;1917073;73;21044;-85
2022/03/26 11:22:26;;;;;;;7.12;5.47;;;17.40;74.10;;;;;;1935206;73;21557;-85
2022/03/26 11:25:36;;;;;;;7.87;5.33;;;17.50;74.80;;;;;;1929847;73;21117;-85
2022/03/26 11:31:23;;;;;;;10.08;6.87;;;17.60;74.90;;;;;;1943696;72;22117;-84
2022/03/26 11:34:37;;;;;;;9.05;6.85;;;17.60;75.20;;;;;;1904810;75;21055;-78
2022/03/26 11:37:29;;;;;;;8.98;6.40;;;17.70;75.20;;;;;;1891762;75;21047;-88
2022/03/26 11:40:42;;;;;;;10.00;6.28;;;17.80;74.00;;;;;;1892596;75;21514;-88
2022/03/26 11:43:55;;;;;;;8.48;6.20;;;17.90;73.50;;;;;;1886826;75;21379;-88
2022/03/26 11:53:13;;;;;;;10.03;6.17;;;18.20;69.00;;;;;;1900655;75;21113;-88
2022/03/26 11:56:06;;;;;;;9.35;6.87;;;18.20;68.30;;;;;;1919963;74;21121;-88
2022/03/26 11:59:11;;;;;;;10.88;6.00;;;18.20;69.50;;;;;;1921039;74;21186;-89
2022/03/26 12:02:16;;;;;;;8.43;5.65;;;18.20;69.10;;;;;;1906959;75;21043;-90
2022/03/26 12:11:04;;;;;;;7.92;5.53;;;18.60;63.40;;;;;;1965749;72;22506;-88
2022/03/26 12:16:57;;;;;;;8.98;5.75;;;18.80;59.30;;;;;;1928917;72;22187;-88
2022/03/26 12:20:22;;;;;;;7.17;5.00;;;18.80;57.10;;;;;;1901943;75;21106;-88
2022/03/26 12:25:58;;;;;;;8.88;6.00;;;18.90;56.30;;;;;;1976147;72;22135;-88
2022/03/26 12:29:08;;;;;;;10.15;5.35;;;19.00;56.40;;;;;;1935606;73;21055;-89
2022/03/26 12:32:01;;;;;;;8.60;5.60;;;19.00;56.70;;;;;;1936099;73;21062;-89
2022/03/26 12:34:59;;;;;;;6.55;5.50;;;19.10;56.40;;;;;;1928681;73;21050;-88
2022/03/26 12:40:36;;;;;;;8.60;6.22;;;19.30;56.60;;;;;;1948453;72;22167;-88
2022/03/26 12:43:55;;;;;;;9.45;6.28;;;19.40;56.80;;;;;;1906492;75;21043;-84
2022/03/26 12:46:48;;;;;;;6.08;5.20;;;19.60;58.30;;;;;;1909902;75;21531;-85
2022/03/26 12:49:40;;;;;;;8.73;5.75;;;19.70;55.00;;;;;;1896315;75;21059;-85
2022/03/26 12:52:32;;;;;;;6.90;5.30;;;19.70;54.00;;;;;;1898398;75;21090;-84
2022/03/26 12:55:23;;;;;;;6.72;5.17;;;19.70;53.90;;;;;;1908330;75;21166;-85
2022/03/26 13:01:24;;;;;;;8.00;5.58;;;19.70;52.70;;;;;;1913411;75;21076;-85
2022/03/26 13:07:20;;;;;;;9.73;5.87;;;19.60;52.60;;;;;;1953665;72;22206;-86
2022/03/26 13:10:38;;;;;;;6.22;5.08;;;19.80;52.10;;;;;;1913775;74;21132;-86
2022/03/26 13:13:31;;;;;;;8.28;5.70;;;20.10;49.60;;;;;;1914530;74;21510;-84
2022/03/26 13:16:25;;;;;;;8.55;5.65;;;20.30;50.40;;;;;;1911610;74;21180;-85
2022/03/26 13:19:17;;;;;;;8.90;5.67;;;20.50;50.60;;;;;;1921584;74;21249;-85
2022/03/26 13:22:08;;;;;;;7.50;5.53;;;20.50;51.20;;;;;;1904934;75;21082;-85
2022/03/26 13:25:05;;;;;;;7.80;5.97;;;20.50;51.90;;;;;;1900607;75;21124;-85
2022/03/26 13:27:58;;;;;;;8.33;5.78;;;20.50;53.00;;;;;;1905039;75;21610;-85
2022/03/26 13:30:52;;;;;;;10.60;6.45;;;20.70;53.80;;;;;;1904967;75;21059;-85
2022/03/26 13:36:30;;;;;;;8.48;6.47;;;21.20;54.10;;;;;;1943321;72;22255;-84
2022/03/26 13:39:43;;;;;;;8.38;6.10;;;21.20;54.50;;;;;;1890542;75;21035;-85
2022/03/26 13:42:35;;;;;;;7.35;6.05;;;21.20;55.50;;;;;;1892802;75;21131;-85
2022/03/26 13:45:27;;;;;;;11.50;7.58;;;21.10;57.40;;;;;;1904346;75;21051;-85
2022/03/26 13:51:12;;;;;;;8.73;6.90;;;21.30;58.50;;;;;;1943487;72;22121;-84
2022/03/26 13:54:32;;;;;;;8.18;6.05;;;21.30;57.40;;;;;;1933704;73;21125;-85
2022/03/26 13:57:32;;;;;;;8.10;6.12;;;21.30;56.30;;;;;;1923934;73;21109;-84
2022/03/26 14:03:07;;;;;;;10.10;6.85;;;21.50;58.40;;;;;;1940342;72;22171;-85
2022/03/26 14:06:17;;;;;;;8.70;6.45;;;21.60;59.50;;;;;;1873136;75;21614;-88
2022/03/26 14:09:12;;;;;;;9.73;6.60;;;21.50;57.60;;;;;;1878219;75;21645;-88
2022/03/26 14:12:04;;;;;;;8.68;6.05;;;21.60;56.80;;;;;;1886218;75;21084;-87
2022/03/26 14:14:56;;;;;;;8.25;6.10;;;21.90;57.90;;;;;;1897784;75;21139;-87
2022/03/26 14:20:28;;;;;;;8.45;6.45;;;22.10;54.90;;;;;;1935475;72;22271;-89
2022/03/26 14:23:38;;;;;;;7.95;6.53;;;22.20;56.30;;;;;;1896698;75;21110;-88
2022/03/26 14:26:29;;;;;;;10.95;6.10;;;22.20;57.40;;;;;;1906195;75;21160;-84
2022/03/26 14:29:21;;;;;;;8.93;6.00;;;22.50;57.50;;;;;;1906306;75;21121;-85
2022/03/26 14:32:12;;;;;;;8.08;6.50;;;22.60;57.90;;;;;;1887457;75;21160;-87
2022/03/26 14:37:43;;;;;;;10.15;6.67;;;23.20;57.30;;;;;;1939654;72;22118;-87
2022/03/26 14:40:53;;;;;;;7.97;6.50;;;23.50;57.30;;;;;;1897535;75;21160;-88
2022/03/26 14:43:47;;;;;;;8.78;6.35;;;23.90;56.50;;;;;;1892333;75;21106;-87
2022/03/26 14:46:41;;;;;;;7.83;6.60;;;24.10;55.60;;;;;;1886700;75;21072;-87
2022/03/26 14:49:33;;;;;;;9.68;6.72;;;24.70;54.80;;;;;;1876835;75;21625;-87
2022/03/26 14:52:25;;;;;;;8.43;6.37;;;25.10;54.50;;;;;;1882219;75;21108;-87
2022/03/26 14:55:17;;;;;;;9.23;6.87;;;24.40;53.70;;;;;;1881333;75;21103;-88
2022/03/26 14:58:08;;;;;;;10.78;6.80;;;24.50;53.40;;;;;;1890128;75;21047;-88
2022/03/26 15:01:00;;;;;;;8.15;6.42;;;25.10;53.00;;;;;;1892935;75;21040;-88
2022/03/26 15:06:32;;;;;;;8.70;6.62;;;25.00;51.80;;;;;;1931201;72;22173;-87
2022/03/26 15:09:42;;;;;;;9.70;7.42;;;24.80;51.20;;;;;;1886464;75;21096;-87
2022/03/26 15:12:34;;;;;;;10.63;7.35;;;24.50;51.90;;;;;;1889992;75;21554;-88
2022/03/26 15:15:27;;;;;;;8.75;6.65;;;24.70;51.50;;;;;;1893036;75;21111;-84
2022/03/26 15:18:21;;;;;;;7.72;6.47;;;24.70;49.50;;;;;;1883406;75;21063;-85
2022/03/26 15:21:12;;;;;;;8.03;7.20;;;24.70;50.30;;;;;;1894527;75;21177;-86
2022/03/26 15:24:04;;;;;;;9.45;7.37;;;24.90;51.00;;;;;;1889019;75;21067;-86
2022/03/26 15:26:56;;;;;;;10.38;7.15;;;24.70;49.50;;;;;;1890501;75;21104;-85
2022/03/26 15:29:50;;;;;;;9.00;6.37;;;25.30;50.00;;;;;;1896499;75;21146;-84
2022/03/26 15:32:41;;;;;;;7.62;6.40;;;25.20;49.30;;;;;;1894169;75;21498;-84
2022/03/26 15:35:33;;;;;;;10.48;6.33;;;24.70;49.90;;;;;;1881911;75;21140;-85
2022/03/26 15:41:04;;;;;;;7.05;6.08;;;25.00;49.00;;;;;;1950749;72;22157;-83
2022/03/26 15:44:14;;;;;;;8.48;6.97;;;25.10;48.30;;;;;;1915597;74;21048;-83
2022/03/26 15:47:07;;;;;;;9.10;6.50;;;25.10;47.80;;;;;;1911117;74;21112;-83
2022/03/26 15:49:58;;;;;;;8.15;6.10;;;25.30;47.50;;;;;;1909085;73;21165;-82
2022/03/26 15:58:09;;;;;;;7.35;6.15;;;25.30;46.80;;;;;;1934215;72;22240;-84
2022/03/26 16:01:19;;;;;;;8.68;6.20;;;25.20;46.30;;;;;;1891394;75;21197;-82
2022/03/26 16:07:05;;;;;;;7.53;6.08;;;24.60;46.70;;;;;;1957579;72;22107;-84
2022/03/26 16:10:14;;;;;;;9.28;6.65;;;24.50;46.40;;;;;;1921028;74;21151;-84
2022/03/26 16:15:46;;;;;;;9.35;6.70;;;24.80;46.20;;;;;;1940723;72;22562;-84
2022/03/26 16:18:56;;;;;;;8.80;6.30;;;24.60;45.90;;;;;;1903915;75;21104;-85
2022/03/26 16:21:51;;;;;;;7.00;6.10;;;24.60;45.90;;;;;;1904439;75;21059;-87
2022/03/26 16:24:45;;;;;;;9.63;6.25;;;24.40;45.90;;;;;;1914335;74;21045;-84
2022/03/26 16:27:36;;;;;;;9.63;6.85;;;24.50;46.00;;;;;;1913294;75;21101;-83
2022/03/26 16:30:28;;;;;;;7.28;5.97;;;24.50;45.30;;;;;;1897481;75;21127;-80
2022/03/26 16:36:00;;;;;;;8.98;6.53;;;24.00;45.60;;;;;;1960268;72;22109;-86
2022/03/26 16:41:48;;;;;;;9.18;6.03;;;23.00;47.60;;;;;;1956609;72;22685;-81
2022/03/26 16:44:57;;;;;;;10.35;6.25;;;22.70;47.80;;;;;;1884472;75;21216;-83
2022/03/26 16:50:31;;;;;;;8.65;6.03;;;22.70;48.10;;;;;;1957913;72;22634;-86
2022/03/26 16:53:43;;;;;;;9.50;6.42;;;22.50;48.90;;;;;;1875708;75;21089;-83
2022/03/26 16:59:15;;;;;;;10.82;6.47;;;22.20;49.90;;;;;;1941674;72;22256;-83
2022/03/26 17:02:25;;;;;;;10.10;6.55;;;22.00;50.50;;;;;;1901819;75;21478;-84
2022/03/26 17:05:17;;;;;;;10.58;6.85;;;21.80;50.30;;;;;;1916795;75;21148;-83
2022/03/26 17:08:09;;;;;;;10.03;6.05;;;21.50;50.80;;;;;;1901603;75;21153;-84
2022/03/26 17:11:03;;;;;;;8.20;6.03;;;21.40;50.90;;;;;;1859292;76;21176;-87
2022/03/26 17:13:55;;;;;;;6.87;5.85;;;21.20;51.40;;;;;;1901834;75;21054;-83
2022/03/26 17:16:46;;;;;;;8.83;6.50;;;20.90;51.90;;;;;;1913426;75;21043;-84
2022/03/26 17:19:38;;;;;;;7.25;5.65;;;21.00;52.00;;;;;;1901351;75;21043;-84
2022/03/26 17:22:30;;;;;;;10.35;6.65;;;20.90;52.20;;;;;;1906351;75;21074;-83
2022/03/26 17:25:21;;;;;;;7.25;5.90;;;20.80;52.60;;;;;;1905143;75;21091;-83
2022/03/26 17:30:53;;;;;;;10.05;7.17;;;20.50;53.40;;;;;;1929218;72;22601;-83
2022/03/26 17:34:02;;;;;;;10.15;7.20;;;20.30;53.80;;;;;;1903341;75;21051;-84
2022/03/26 17:36:54;;;;;;;8.13;6.53;;;20.20;53.90;;;;;;1900637;75;21094;-83
2022/03/26 17:39:45;;;;;;;11.93;6.60;;;20.30;54.00;;;;;;1880168;75;21121;-83
2022/03/26 17:42:37;;;;;;;10.28;7.22;;;20.20;54.30;;;;;;1886689;75;21119;-83
2022/03/26 17:48:08;;;;;;;10.32;7.83;;;20.10;53.90;;;;;;1950881;72;22180;-85
2022/03/26 17:53:56;;;;;;;11.73;7.05;;;20.10;53.90;;;;;;1958380;72;22236;-83
2022/03/26 17:57:09;;;;;;;10.90;7.45;;;20.00;53.90;;;;;;1929122;73;21075;-88
2022/03/26 18:00:01;;;;;;;12.60;7.33;;;20.00;54.00;;;;;;1945062;73;21057;-88
2022/03/26 18:02:54;;;;;;;10.82;7.70;;;20.00;54.00;;;;;;1917381;75;21592;-88
2022/03/26 18:05:45;;;;;;;9.58;7.22;;;20.00;54.00;;;;;;1913682;75;21094;-89
2022/03/26 18:11:15;;;;;;;10.38;6.95;;;19.80;54.60;;;;;;1954105;72;22224;-88
2022/03/26 18:14:25;;;;;;;9.40;7.20;;;19.80;54.70;;;;;;1910545;75;21124;-88
2022/03/26 18:17:17;;;;;;;9.33;6.92;;;19.70;54.60;;;;;;1905680;75;21178;-86
2022/03/26 18:20:11;;;;;;;9.53;7.47;;;19.60;54.80;;;;;;1903114;73;21550;-87
2022/03/26 18:25:41;;;;;;;10.65;8.03;;;19.50;55.50;;;;;;1951313;72;22192;-88
2022/03/26 18:31:31;;;;;;;13.00;8.30;;;19.60;55.20;;;;;;1951909;72;22609;-88
2022/03/26 18:34:40;;;;;;;12.13;8.50;;;19.50;55.00;;;;;;1893882;74;21113;-89
2022/03/26 18:37:32;;;;;;;9.98;7.50;;;19.50;55.00;;;;;;1899998;75;21207;-89
2022/03/26 18:40:24;;;;;;;12.90;7.80;;;19.40;55.60;;;;;;1909464;75;21223;-89
2022/03/26 18:45:59;;;;;;;12.00;8.03;;;19.30;56.00;;;;;;1949037;72;22173;-91
2022/03/26 18:51:49;;;;;;;12.23;8.65;;;19.20;56.70;;;;;;1940668;72;22181;-88
2022/03/26 18:55:01;;;;;;;12.20;9.08;;;19.20;57.10;;;;;;1894070;75;21028;-89
2022/03/26 19:00:42;;;;;;;13.75;8.63;;;19.10;57.80;;;;;;1944180;72;22192;-89
2022/03/26 19:09:14;;;;;;;17.10;9.60;;;19.10;58.60;;;;;;1943710;72;22245;-88
2022/03/26 19:12:23;;;;;;;13.28;9.38;;;19.00;59.00;;;;;;1904858;75;21153;-88
2022/03/26 19:18:00;;;;;;;15.03;10.40;;;18.90;59.50;;;;;;1947000;72;22281;-89